sensor_id;sensor_type;location;lat;lon;timestamp;temperature;humidity
19279;DHT22;9773;47.062;15.446;2023-03-01T00:02:04;3.30;95.20
19279;DHT22;9773;47.062;15.446;2023-03-01T00:04:30;3.20;95.30
19279;DHT22;9773;47.062;15.446;2023-03-01T00:06:57;3.20;95.30
19279;DHT22;9773;47.062;15.446;2023-03-01T00:09:23;3.10;95.60
19279;DHT22;9773;47.062;15.446;2023-03-01T00:11:49;3.00;95.40
19279;DHT22;9773;47.062;15.446;2023-03-01T00:14:15;2.90;95.50
19279;DHT22;9773;47.062;15.446;2023-03-01T00:16:43;3.00;95.70
19279;DHT22;9773;47.062;15.446;2023-03-01T00:19:15;2.90;95.50
19279;DHT22;9773;47.062;15.446;2023-03-01T00:21:41;2.90;95.60
19279;DHT22;9773;47.062;15.446;2023-03-01T00:24:07;2.90;95.60
19279;DHT22;9773;47.062;15.446;2023-03-01T00:26:33;2.90;95.60
19279;DHT22;9773;47.062;15.446;2023-03-01T00:29:00;2.90;95.60
19279;DHT22;9773;47.062;15.446;2023-03-01T00:31:30;3.00;95.60
19279;DHT22;9773;47.062;15.446;2023-03-01T00:33:59;3.10;95.60
19279;DHT22;9773;47.062;15.446;2023-03-01T00:36:30;3.10;95.60
19279;DHT22;9773;47.062;15.446;2023-03-01T00:38:56;3.10;95.60
19279;DHT22;9773;47.062;15.446;2023-03-01T00:41:22;3.00;95.60
19279;DHT22;9773;47.062;15.446;2023-03-01T00:43:49;3.00;95.60
19279;DHT22;9773;47.062;15.446;2023-03-01T00:46:18;3.00;95.80
19279;DHT22;9773;47.062;15.446;2023-03-01T00:48:45;3.00;95.80
19279;DHT22;9773;47.062;15.446;2023-03-01T00:53:40;3.10;95.60
19279;DHT22;9773;47.062;15.446;2023-03-01T00:56:08;3.20;95.60
19279;DHT22;9773;47.062;15.446;2023-03-01T00:58:35;3.20;95.60
19279;DHT22;9773;47.062;15.446;2023-03-01T01:01:06;3.20;95.40
19279;DHT22;9773;47.062;15.446;2023-03-01T01:03:32;3.10;95.40
19279;DHT22;9773;47.062;15.446;2023-03-01T01:05:58;3.00;95.50
19279;DHT22;9773;47.062;15.446;2023-03-01T01:08:24;3.00;95.60
19279;DHT22;9773;47.062;15.446;2023-03-01T01:10:49;3.00;95.70
19279;DHT22;9773;47.062;15.446;2023-03-01T01:13:15;3.00;95.60
19279;DHT22;9773;47.062;15.446;2023-03-01T01:15:41;3.00;95.60
19279;DHT22;9773;47.062;15.446;2023-03-01T01:18:07;3.00;95.60
19279;DHT22;9773;47.062;15.446;2023-03-01T01:20:35;3.00;95.60
19279;DHT22;9773;47.062;15.446;2023-03-01T01:23:01;3.00;95.60
19279;DHT22;9773;47.062;15.446;2023-03-01T01:25:26;3.10;95.60
19279;DHT22;9773;47.062;15.446;2023-03-01T01:27:52;3.10;95.50
19279;DHT22;9773;47.062;15.446;2023-03-01T01:30:18;3.00;95.60
19279;DHT22;9773;47.062;15.446;2023-03-01T01:32:44;3.00;95.70
19279;DHT22;9773;47.062;15.446;2023-03-01T01:35:09;3.10;95.70
19279;DHT22;9773;47.062;15.446;2023-03-01T01:37:35;3.10;95.70
19279;DHT22;9773;47.062;15.446;2023-03-01T01:40:01;3.10;95.70
19279;DHT22;9773;47.062;15.446;2023-03-01T01:42:30;3.10;95.70
19279;DHT22;9773;47.062;15.446;2023-03-01T01:45:24;3.10;95.80
19279;DHT22;9773;47.062;15.446;2023-03-01T01:47:52;3.10;95.80
19279;DHT22;9773;47.062;15.446;2023-03-01T01:50:20;3.00;96.00
19279;DHT22;9773;47.062;15.446;2023-03-01T01:52:48;2.90;96.00
19279;DHT22;9773;47.062;15.446;2023-03-01T01:55:21;2.80;96.10
19279;DHT22;9773;47.062;15.446;2023-03-01T01:57:53;2.90;96.20
19279;DHT22;9773;47.062;15.446;2023-03-01T02:00:23;2.90;96.10
19279;DHT22;9773;47.062;15.446;2023-03-01T02:02:54;2.90;95.90
19279;DHT22;9773;47.062;15.446;2023-03-01T02:08:05;2.90;96.10
19279;DHT22;9773;47.062;15.446;2023-03-01T02:10:33;2.90;96.10
19279;DHT22;9773;47.062;15.446;2023-03-01T02:13:00;2.80;96.10
19279;DHT22;9773;47.062;15.446;2023-03-01T02:15:26;2.80;96.20
19279;DHT22;9773;47.062;15.446;2023-03-01T02:17:57;2.70;96.10
19279;DHT22;9773;47.062;15.446;2023-03-01T02:20:44;2.70;96.00
19279;DHT22;9773;47.062;15.446;2023-03-01T02:23:14;2.70;96.10
19279;DHT22;9773;47.062;15.446;2023-03-01T02:26:01;2.80;96.10
19279;DHT22;9773;47.062;15.446;2023-03-01T02:28:37;2.90;96.00
19279;DHT22;9773;47.062;15.446;2023-03-01T02:31:06;2.80;96.00
19279;DHT22;9773;47.062;15.446;2023-03-01T02:33:51;2.80;95.90
19279;DHT22;9773;47.062;15.446;2023-03-01T02:36:39;2.80;96.00
19279;DHT22;9773;47.062;15.446;2023-03-01T02:39:07;2.80;95.80
19279;DHT22;9773;47.062;15.446;2023-03-01T02:41:42;2.80;95.90
19279;DHT22;9773;47.062;15.446;2023-03-01T02:44:08;2.90;95.80
19279;DHT22;9773;47.062;15.446;2023-03-01T02:46:41;2.90;95.80
19279;DHT22;9773;47.062;15.446;2023-03-01T02:49:29;2.90;95.80
19279;DHT22;9773;47.062;15.446;2023-03-01T02:55:05;3.10;95.60
19279;DHT22;9773;47.062;15.446;2023-03-01T02:57:34;3.20;95.40
19279;DHT22;9773;47.062;15.446;2023-03-01T03:00:07;3.20;95.10
19279;DHT22;9773;47.062;15.446;2023-03-01T03:02:33;3.10;94.90
19279;DHT22;9773;47.062;15.446;2023-03-01T03:05:08;3.00;95.20
19279;DHT22;9773;47.062;15.446;2023-03-01T03:07:37;3.00;95.10
19279;DHT22;9773;47.062;15.446;2023-03-01T03:10:05;3.00;95.20
19279;DHT22;9773;47.062;15.446;2023-03-01T03:12:31;3.00;94.90
19279;DHT22;9773;47.062;15.446;2023-03-01T03:14:57;3.00;94.90
19279;DHT22;9773;47.062;15.446;2023-03-01T03:17:23;3.00;95.00
19279;DHT22;9773;47.062;15.446;2023-03-01T03:19:48;3.10;95.00
19279;DHT22;9773;47.062;15.446;2023-03-01T03:22:14;3.10;95.10
19279;DHT22;9773;47.062;15.446;2023-03-01T03:24:40;3.20;95.30
19279;DHT22;9773;47.062;15.446;2023-03-01T03:27:06;3.20;94.70
19279;DHT22;9773;47.062;15.446;2023-03-01T03:29:33;3.20;94.60
19279;DHT22;9773;47.062;15.446;2023-03-01T03:31:59;3.10;94.80
19279;DHT22;9773;47.062;15.446;2023-03-01T03:34:25;3.10;95.10
19279;DHT22;9773;47.062;15.446;2023-03-01T03:36:54;3.10;94.80
19279;DHT22;9773;47.062;15.446;2023-03-01T03:39:26;3.20;95.00
19279;DHT22;9773;47.062;15.446;2023-03-01T03:41:53;3.30;94.90
19279;DHT22;9773;47.062;15.446;2023-03-01T03:44:19;3.30;94.70
19279;DHT22;9773;47.062;15.446;2023-03-01T03:46:45;3.30;94.70
19279;DHT22;9773;47.062;15.446;2023-03-01T03:49:11;3.30;94.50
19279;DHT22;9773;47.062;15.446;2023-03-01T03:51:36;3.30;94.60
19279;DHT22;9773;47.062;15.446;2023-03-01T03:54:02;3.30;94.40
19279;DHT22;9773;47.062;15.446;2023-03-01T03:56:29;3.30;94.40
19279;DHT22;9773;47.062;15.446;2023-03-01T03:58:55;3.30;94.50
19279;DHT22;9773;47.062;15.446;2023-03-01T04:01:21;3.40;94.60
19279;DHT22;9773;47.062;15.446;2023-03-01T04:03:46;3.40;94.10
19279;DHT22;9773;47.062;15.446;2023-03-01T04:06:13;3.40;93.90
19279;DHT22;9773;47.062;15.446;2023-03-01T04:08:40;3.40;94.00
19279;DHT22;9773;47.062;15.446;2023-03-01T04:11:06;3.40;94.30
19279;DHT22;9773;47.062;15.446;2023-03-01T04:13:52;3.50;94.20
19279;DHT22;9773;47.062;15.446;2023-03-01T04:16:18;3.50;94.20
19279;DHT22;9773;47.062;15.446;2023-03-01T04:18:44;3.40;94.00
19279;DHT22;9773;47.062;15.446;2023-03-01T04:21:10;3.30;94.00
19279;DHT22;9773;47.062;15.446;2023-03-01T04:23:37;3.30;93.50
19279;DHT22;9773;47.062;15.446;2023-03-01T04:26:03;3.30;93.70
19279;DHT22;9773;47.062;15.446;2023-03-01T04:28:32;3.40;93.60
19279;DHT22;9773;47.062;15.446;2023-03-01T04:31:09;3.40;93.70
19279;DHT22;9773;47.062;15.446;2023-03-01T04:33:59;3.50;93.70
19279;DHT22;9773;47.062;15.446;2023-03-01T04:36:27;3.60;93.80
19279;DHT22;9773;47.062;15.446;2023-03-01T04:38:53;3.60;93.80
19279;DHT22;9773;47.062;15.446;2023-03-01T04:41:22;3.50;93.90
19279;DHT22;9773;47.062;15.446;2023-03-01T04:43:49;3.50;93.90
19279;DHT22;9773;47.062;15.446;2023-03-01T04:46:17;3.50;94.20
19279;DHT22;9773;47.062;15.446;2023-03-01T04:48:45;3.50;94.10
19279;DHT22;9773;47.062;15.446;2023-03-01T04:51:12;3.40;94.40
19279;DHT22;9773;47.062;15.446;2023-03-01T04:53:39;3.40;94.60
19279;DHT22;9773;47.062;15.446;2023-03-01T04:56:05;3.30;94.80
19279;DHT22;9773;47.062;15.446;2023-03-01T04:58:32;3.30;95.10
19279;DHT22;9773;47.062;15.446;2023-03-01T05:00:58;3.30;95.20
19279;DHT22;9773;47.062;15.446;2023-03-01T05:03:24;3.30;95.30
19279;DHT22;9773;47.062;15.446;2023-03-01T05:05:51;3.30;95.20
19279;DHT22;9773;47.062;15.446;2023-03-01T05:08:18;3.30;95.40
19279;DHT22;9773;47.062;15.446;2023-03-01T05:10:46;3.30;95.30
19279;DHT22;9773;47.062;15.446;2023-03-01T05:13:13;3.30;95.50
19279;DHT22;9773;47.062;15.446;2023-03-01T05:15:40;3.30;95.50
19279;DHT22;9773;47.062;15.446;2023-03-01T05:18:06;3.20;95.60
19279;DHT22;9773;47.062;15.446;2023-03-01T05:20:37;3.10;95.70
19279;DHT22;9773;47.062;15.446;2023-03-01T05:23:03;3.00;95.80
19279;DHT22;9773;47.062;15.446;2023-03-01T05:25:34;3.00;95.90
19279;DHT22;9773;47.062;15.446;2023-03-01T05:28:02;3.10;95.60
19279;DHT22;9773;47.062;15.446;2023-03-01T05:30:33;3.00;95.60
19279;DHT22;9773;47.062;15.446;2023-03-01T05:33:01;3.10;95.50
19279;DHT22;9773;47.062;15.446;2023-03-01T05:35:27;3.10;95.60
19279;DHT22;9773;47.062;15.446;2023-03-01T05:37:52;3.10;95.50
19279;DHT22;9773;47.062;15.446;2023-03-01T05:40:21;3.10;95.60
19279;DHT22;9773;47.062;15.446;2023-03-01T05:42:49;3.10;95.00
19279;DHT22;9773;47.062;15.446;2023-03-01T05:45:16;3.10;94.90
19279;DHT22;9773;47.062;15.446;2023-03-01T05:47:43;3.20;95.10
19279;DHT22;9773;47.062;15.446;2023-03-01T05:50:32;3.20;94.90
19279;DHT22;9773;47.062;15.446;2023-03-01T05:53:01;3.30;94.90
19279;DHT22;9773;47.062;15.446;2023-03-01T05:55:29;3.40;95.10
19279;DHT22;9773;47.062;15.446;2023-03-01T05:57:55;3.40;95.10
19279;DHT22;9773;47.062;15.446;2023-03-01T06:00:21;3.40;95.30
19279;DHT22;9773;47.062;15.446;2023-03-01T06:02:48;3.50;95.20
19279;DHT22;9773;47.062;15.446;2023-03-01T06:05:14;3.60;95.00
19279;DHT22;9773;47.062;15.446;2023-03-01T06:07:41;3.60;94.90
19279;DHT22;9773;47.062;15.446;2023-03-01T06:10:08;3.60;94.70
19279;DHT22;9773;47.062;15.446;2023-03-01T06:12:36;3.50;94.80
19279;DHT22;9773;47.062;15.446;2023-03-01T06:15:03;3.50;94.90
19279;DHT22;9773;47.062;15.446;2023-03-01T06:17:31;3.70;95.10
19279;DHT22;9773;47.062;15.446;2023-03-01T06:19:57;3.70;94.90
19279;DHT22;9773;47.062;15.446;2023-03-01T06:22:23;3.80;94.70
19279;DHT22;9773;47.062;15.446;2023-03-01T06:24:48;3.70;94.60
19279;DHT22;9773;47.062;15.446;2023-03-01T06:27:15;3.70;94.70
19279;DHT22;9773;47.062;15.446;2023-03-01T06:29:41;3.80;94.60
19279;DHT22;9773;47.062;15.446;2023-03-01T06:32:07;3.70;94.60
19279;DHT22;9773;47.062;15.446;2023-03-01T06:34:33;3.60;94.30
19279;DHT22;9773;47.062;15.446;2023-03-01T06:36:59;3.60;94.60
19279;DHT22;9773;47.062;15.446;2023-03-01T06:39:27;3.70;94.70
19279;DHT22;9773;47.062;15.446;2023-03-01T06:41:52;3.70;94.40
19279;DHT22;9773;47.062;15.446;2023-03-01T06:44:18;3.70;94.40
19279;DHT22;9773;47.062;15.446;2023-03-01T06:46:44;3.70;94.10
19279;DHT22;9773;47.062;15.446;2023-03-01T06:49:09;3.80;93.80
19279;DHT22;9773;47.062;15.446;2023-03-01T06:51:36;3.70;93.90
19279;DHT22;9773;47.062;15.446;2023-03-01T06:54:03;3.70;94.00
19279;DHT22;9773;47.062;15.446;2023-03-01T06:56:30;3.80;93.70
19279;DHT22;9773;47.062;15.446;2023-03-01T06:58:56;3.80;93.90
19279;DHT22;9773;47.062;15.446;2023-03-01T07:01:22;3.90;94.00
19279;DHT22;9773;47.062;15.446;2023-03-01T07:03:47;3.90;93.90
19279;DHT22;9773;47.062;15.446;2023-03-01T07:06:13;3.90;93.90
19279;DHT22;9773;47.062;15.446;2023-03-01T07:08:39;3.90;94.20
19279;DHT22;9773;47.062;15.446;2023-03-01T07:11:05;4.00;94.40
19279;DHT22;9773;47.062;15.446;2023-03-01T07:13:31;4.00;94.30
19279;DHT22;9773;47.062;15.446;2023-03-01T07:15:57;4.00;94.20
19279;DHT22;9773;47.062;15.446;2023-03-01T07:18:23;4.00;94.10
19279;DHT22;9773;47.062;15.446;2023-03-01T07:20:49;4.10;93.90
19279;DHT22;9773;47.062;15.446;2023-03-01T07:23:15;4.10;93.80
19279;DHT22;9773;47.062;15.446;2023-03-01T07:25:41;4.20;93.70
19279;DHT22;9773;47.062;15.446;2023-03-01T07:28:07;4.30;94.00
19279;DHT22;9773;47.062;15.446;2023-03-01T07:30:33;4.20;94.40
19279;DHT22;9773;47.062;15.446;2023-03-01T07:32:59;4.30;94.50
19279;DHT22;9773;47.062;15.446;2023-03-01T07:35:26;4.30;94.50
19279;DHT22;9773;47.062;15.446;2023-03-01T07:37:52;4.30;93.80
19279;DHT22;9773;47.062;15.446;2023-03-01T07:40:18;4.30;92.50
19279;DHT22;9773;47.062;15.446;2023-03-01T07:42:44;4.30;92.40
19279;DHT22;9773;47.062;15.446;2023-03-01T07:45:10;4.30;93.10
19279;DHT22;9773;47.062;15.446;2023-03-01T07:47:36;4.20;93.10
19279;DHT22;9773;47.062;15.446;2023-03-01T07:50:03;4.30;93.30
19279;DHT22;9773;47.062;15.446;2023-03-01T07:52:30;4.40;93.20
19279;DHT22;9773;47.062;15.446;2023-03-01T07:54:56;4.50;93.30
19279;DHT22;9773;47.062;15.446;2023-03-01T07:57:23;4.40;93.60
19279;DHT22;9773;47.062;15.446;2023-03-01T07:59:49;4.40;93.70
19279;DHT22;9773;47.062;15.446;2023-03-01T08:02:14;4.50;93.50
19279;DHT22;9773;47.062;15.446;2023-03-01T08:04:41;4.60;93.50
19279;DHT22;9773;47.062;15.446;2023-03-01T08:07:07;4.60;93.90
19279;DHT22;9773;47.062;15.446;2023-03-01T08:09:37;4.60;93.80
19279;DHT22;9773;47.062;15.446;2023-03-01T08:12:03;4.70;93.50
19279;DHT22;9773;47.062;15.446;2023-03-01T08:14:30;4.80;93.30
19279;DHT22;9773;47.062;15.446;2023-03-01T08:16:56;4.80;94.00
19279;DHT22;9773;47.062;15.446;2023-03-01T08:19:22;4.70;94.10
19279;DHT22;9773;47.062;15.446;2023-03-01T08:21:48;4.80;95.30
19279;DHT22;9773;47.062;15.446;2023-03-01T08:24:13;4.90;95.60
19279;DHT22;9773;47.062;15.446;2023-03-01T08:26:39;5.00;95.70
19279;DHT22;9773;47.062;15.446;2023-03-01T08:29:05;5.10;95.40
19279;DHT22;9773;47.062;15.446;2023-03-01T08:31:33;5.10;94.10
19279;DHT22;9773;47.062;15.446;2023-03-01T08:34:03;5.20;93.50
19279;DHT22;9773;47.062;15.446;2023-03-01T08:36:32;5.00;93.50
19279;DHT22;9773;47.062;15.446;2023-03-01T08:38:58;4.90;93.80
19279;DHT22;9773;47.062;15.446;2023-03-01T08:41:25;5.00;93.50
19279;DHT22;9773;47.062;15.446;2023-03-01T08:43:52;4.90;93.00
19279;DHT22;9773;47.062;15.446;2023-03-01T08:46:18;4.90;92.40
19279;DHT22;9773;47.062;15.446;2023-03-01T08:48:44;4.90;92.70
19279;DHT22;9773;47.062;15.446;2023-03-01T08:51:11;4.60;92.60
19279;DHT22;9773;47.062;15.446;2023-03-01T08:53:38;4.50;93.30
19279;DHT22;9773;47.062;15.446;2023-03-01T08:56:04;4.60;94.00
19279;DHT22;9773;47.062;15.446;2023-03-01T08:58:30;4.80;93.20
19279;DHT22;9773;47.062;15.446;2023-03-01T09:00:56;4.70;92.90
19279;DHT22;9773;47.062;15.446;2023-03-01T09:03:23;4.60;93.00
19279;DHT22;9773;47.062;15.446;2023-03-01T09:05:49;4.50;93.40
19279;DHT22;9773;47.062;15.446;2023-03-01T09:08:19;4.40;93.20
19279;DHT22;9773;47.062;15.446;2023-03-01T09:10:45;4.50;93.70
19279;DHT22;9773;47.062;15.446;2023-03-01T09:13:12;4.60;93.50
19279;DHT22;9773;47.062;15.446;2023-03-01T09:15:38;4.70;93.40
19279;DHT22;9773;47.062;15.446;2023-03-01T09:18:04;4.80;93.40
19279;DHT22;9773;47.062;15.446;2023-03-01T09:20:31;4.90;93.60
19279;DHT22;9773;47.062;15.446;2023-03-01T09:22:57;5.00;93.40
19279;DHT22;9773;47.062;15.446;2023-03-01T09:25:23;5.00;93.40
19279;DHT22;9773;47.062;15.446;2023-03-01T09:27:53;5.10;93.80
19279;DHT22;9773;47.062;15.446;2023-03-01T09:30:20;4.80;93.90
19279;DHT22;9773;47.062;15.446;2023-03-01T09:32:46;4.60;94.20
19279;DHT22;9773;47.062;15.446;2023-03-01T09:35:12;4.50;94.40
19279;DHT22;9773;47.062;15.446;2023-03-01T09:37:39;4.60;94.60
19279;DHT22;9773;47.062;15.446;2023-03-01T09:40:28;4.60;94.70
19279;DHT22;9773;47.062;15.446;2023-03-01T09:43:07;4.60;95.50
19279;DHT22;9773;47.062;15.446;2023-03-01T09:45:36;4.70;94.60
19279;DHT22;9773;47.062;15.446;2023-03-01T09:48:04;4.70;94.90
19279;DHT22;9773;47.062;15.446;2023-03-01T09:50:39;4.80;94.90
19279;DHT22;9773;47.062;15.446;2023-03-01T09:53:32;4.80;94.70
19279;DHT22;9773;47.062;15.446;2023-03-01T09:56:20;4.90;94.10
19279;DHT22;9773;47.062;15.446;2023-03-01T09:58:55;4.90;94.00
19279;DHT22;9773;47.062;15.446;2023-03-01T10:01:34;4.80;94.10
19279;DHT22;9773;47.062;15.446;2023-03-01T10:06:46;4.80;94.30
19279;DHT22;9773;47.062;15.446;2023-03-01T10:09:14;5.00;94.20
19279;DHT22;9773;47.062;15.446;2023-03-01T10:11:52;4.90;94.10
19279;DHT22;9773;47.062;15.446;2023-03-01T10:14:49;4.90;93.90
19279;DHT22;9773;47.062;15.446;2023-03-01T10:19:46;4.90;94.20
19279;DHT22;9773;47.062;15.446;2023-03-01T10:24:44;5.00;93.90
19279;DHT22;9773;47.062;15.446;2023-03-01T10:27:24;4.90;94.10
19279;DHT22;9773;47.062;15.446;2023-03-01T10:30:12;5.00;94.00
19279;DHT22;9773;47.062;15.446;2023-03-01T10:32:42;5.10;94.20
19279;DHT22;9773;47.062;15.446;2023-03-01T10:35:18;5.00;94.00
19279;DHT22;9773;47.062;15.446;2023-03-01T10:38:03;5.10;94.10
19279;DHT22;9773;47.062;15.446;2023-03-01T10:40:31;5.30;94.00
19279;DHT22;9773;47.062;15.446;2023-03-01T10:43:04;5.30;94.00
19279;DHT22;9773;47.062;15.446;2023-03-01T10:45:36;5.20;94.30
19279;DHT22;9773;47.062;15.446;2023-03-01T10:50:34;5.20;94.70
19279;DHT22;9773;47.062;15.446;2023-03-01T10:53:03;5.20;94.90
19279;DHT22;9773;47.062;15.446;2023-03-01T10:55:38;5.20;94.60
19279;DHT22;9773;47.062;15.446;2023-03-01T10:58:08;5.30;94.70
19279;DHT22;9773;47.062;15.446;2023-03-01T11:00:47;5.30;94.60
19279;DHT22;9773;47.062;15.446;2023-03-01T11:03:18;5.30;94.70
19279;DHT22;9773;47.062;15.446;2023-03-01T11:08:42;5.50;94.50
19279;DHT22;9773;47.062;15.446;2023-03-01T11:11:25;5.50;94.80
19279;DHT22;9773;47.062;15.446;2023-03-01T11:14:23;5.60;94.70
19279;DHT22;9773;47.062;15.446;2023-03-01T11:17:01;5.60;94.50
19279;DHT22;9773;47.062;15.446;2023-03-01T11:19:27;5.60;94.40
19279;DHT22;9773;47.062;15.446;2023-03-01T11:22:01;5.60;94.70
19279;DHT22;9773;47.062;15.446;2023-03-01T11:24:33;5.60;94.70
19279;DHT22;9773;47.062;15.446;2023-03-01T11:27:03;5.50;95.00
19279;DHT22;9773;47.062;15.446;2023-03-01T11:32:05;5.50;95.00
19279;DHT22;9773;47.062;15.446;2023-03-01T11:40:12;5.70;95.00
19279;DHT22;9773;47.062;15.446;2023-03-01T11:45:26;5.50;95.30
19279;DHT22;9773;47.062;15.446;2023-03-01T11:48:31;5.50;95.40
19279;DHT22;9773;47.062;15.446;2023-03-01T11:50:54;5.30;95.70
19279;DHT22;9773;47.062;15.446;2023-03-01T11:56:15;5.60;95.50
19279;DHT22;9773;47.062;15.446;2023-03-01T12:03:59;5.50;95.90
19279;DHT22;9773;47.062;15.446;2023-03-01T12:12:01;5.80;95.30
19279;DHT22;9773;47.062;15.446;2023-03-01T12:17:28;6.10;95.20
19279;DHT22;9773;47.062;15.446;2023-03-01T12:23:15;6.20;95.30
19279;DHT22;9773;47.062;15.446;2023-03-01T12:25:58;6.20;95.10
19279;DHT22;9773;47.062;15.446;2023-03-01T12:39:44;6.10;94.60
19279;DHT22;9773;47.062;15.446;2023-03-01T12:50:40;6.10;94.60
19279;DHT22;9773;47.062;15.446;2023-03-01T12:53:53;6.10;94.50
19279;DHT22;9773;47.062;15.446;2023-03-01T12:56:08;6.10;94.70
19279;DHT22;9773;47.062;15.446;2023-03-01T12:58:45;6.20;94.50
19279;DHT22;9773;47.062;15.446;2023-03-01T13:01:36;6.20;94.60
19279;DHT22;9773;47.062;15.446;2023-03-01T13:09:45;6.20;94.60
19279;DHT22;9773;47.062;15.446;2023-03-01T13:15:37;6.50;94.70
19279;DHT22;9773;47.062;15.446;2023-03-01T13:20:49;6.70;94.50
19279;DHT22;9773;47.062;15.446;2023-03-01T13:26:20;6.70;94.50
19279;DHT22;9773;47.062;15.446;2023-03-01T13:28:55;6.60;94.80
19279;DHT22;9773;47.062;15.446;2023-03-01T13:33:52;6.60;95.00
19279;DHT22;9773;47.062;15.446;2023-03-01T13:46:56;7.10;94.90
19279;DHT22;9773;47.062;15.446;2023-03-01T13:49:27;7.10;94.90
19279;DHT22;9773;47.062;15.446;2023-03-01T13:51:53;7.00;94.80
19279;DHT22;9773;47.062;15.446;2023-03-01T13:54:26;7.00;95.00
19279;DHT22;9773;47.062;15.446;2023-03-01T13:56:55;7.10;95.10
19279;DHT22;9773;47.062;15.446;2023-03-01T13:59:23;7.20;95.30
19279;DHT22;9773;47.062;15.446;2023-03-01T14:02:11;7.10;95.20
19279;DHT22;9773;47.062;15.446;2023-03-01T14:04:37;6.90;95.10
19279;DHT22;9773;47.062;15.446;2023-03-01T14:07:19;7.00;95.10
19279;DHT22;9773;47.062;15.446;2023-03-01T14:09:47;7.10;95.40
19279;DHT22;9773;47.062;15.446;2023-03-01T14:15:27;7.20;95.10
19279;DHT22;9773;47.062;15.446;2023-03-01T14:17:57;7.20;95.20
19279;DHT22;9773;47.062;15.446;2023-03-01T14:20:27;7.20;95.40
19279;DHT22;9773;47.062;15.446;2023-03-01T14:22:59;7.20;95.30
19279;DHT22;9773;47.062;15.446;2023-03-01T14:25:34;7.30;95.50
19279;DHT22;9773;47.062;15.446;2023-03-01T14:28:36;7.40;95.30
19279;DHT22;9773;47.062;15.446;2023-03-01T14:31:45;7.50;95.20
19279;DHT22;9773;47.062;15.446;2023-03-01T14:34:20;7.70;95.50
19279;DHT22;9773;47.062;15.446;2023-03-01T14:36:46;7.50;95.50
19279;DHT22;9773;47.062;15.446;2023-03-01T14:39:22;7.30;95.90
19279;DHT22;9773;47.062;15.446;2023-03-01T14:41:49;7.40;96.20
19279;DHT22;9773;47.062;15.446;2023-03-01T14:44:21;7.30;96.30
19279;DHT22;9773;47.062;15.446;2023-03-01T14:46:54;7.40;96.20
19279;DHT22;9773;47.062;15.446;2023-03-01T14:49:30;7.30;96.40
19279;DHT22;9773;47.062;15.446;2023-03-01T14:54:36;7.20;97.00
19279;DHT22;9773;47.062;15.446;2023-03-01T14:57:03;7.20;96.90
19279;DHT22;9773;47.062;15.446;2023-03-01T14:59:29;7.20;97.10
19279;DHT22;9773;47.062;15.446;2023-03-01T15:01:57;7.20;97.40
19279;DHT22;9773;47.062;15.446;2023-03-01T15:04:24;7.20;97.50
19279;DHT22;9773;47.062;15.446;2023-03-01T15:06:53;7.10;97.70
19279;DHT22;9773;47.062;15.446;2023-03-01T15:09:20;7.10;98.10
19279;DHT22;9773;47.062;15.446;2023-03-01T15:11:47;7.00;98.40
19279;DHT22;9773;47.062;15.446;2023-03-01T15:14:39;6.90;98.70
19279;DHT22;9773;47.062;15.446;2023-03-01T15:17:21;6.80;99.10
19279;DHT22;9773;47.062;15.446;2023-03-01T15:19:49;6.80;99.40
19279;DHT22;9773;47.062;15.446;2023-03-01T15:22:16;6.80;99.90
19279;DHT22;9773;47.062;15.446;2023-03-01T15:24:47;6.80;99.50
19279;DHT22;9773;47.062;15.446;2023-03-01T15:27:20;6.70;99.90
19279;DHT22;9773;47.062;15.446;2023-03-01T15:29:58;6.70;99.50
19279;DHT22;9773;47.062;15.446;2023-03-01T15:34:50;6.80;99.80
19279;DHT22;9773;47.062;15.446;2023-03-01T15:37:38;6.70;99.70
19279;DHT22;9773;47.062;15.446;2023-03-01T15:40:25;6.70;99.00
19279;DHT22;9773;47.062;15.446;2023-03-01T15:43:00;6.60;99.30
19279;DHT22;9773;47.062;15.446;2023-03-01T15:45:28;6.60;99.60
19279;DHT22;9773;47.062;15.446;2023-03-01T15:47:56;6.60;99.30
19279;DHT22;9773;47.062;15.446;2023-03-01T15:50:25;6.60;99.90
19279;DHT22;9773;47.062;15.446;2023-03-01T15:52:51;6.60;99.90
19279;DHT22;9773;47.062;15.446;2023-03-01T15:55:18;6.60;99.90
19279;DHT22;9773;47.062;15.446;2023-03-01T15:57:45;6.40;99.90
19279;DHT22;9773;47.062;15.446;2023-03-01T16:00:12;6.50;99.90
19279;DHT22;9773;47.062;15.446;2023-03-01T16:02:40;6.50;99.90
19279;DHT22;9773;47.062;15.446;2023-03-01T16:05:28;6.40;99.90
19279;DHT22;9773;47.062;15.446;2023-03-01T16:07:56;6.40;99.90
19279;DHT22;9773;47.062;15.446;2023-03-01T16:10:22;6.40;99.90
19279;DHT22;9773;47.062;15.446;2023-03-01T16:12:48;6.50;99.90
19279;DHT22;9773;47.062;15.446;2023-03-01T16:15:23;6.50;99.90
19279;DHT22;9773;47.062;15.446;2023-03-01T16:17:50;6.50;99.90
19279;DHT22;9773;47.062;15.446;2023-03-01T16:20:16;6.50;99.90
19279;DHT22;9773;47.062;15.446;2023-03-01T16:22:43;6.50;99.90
19279;DHT22;9773;47.062;15.446;2023-03-01T16:25:14;6.40;99.90
19279;DHT22;9773;47.062;15.446;2023-03-01T16:27:44;6.30;99.90
19279;DHT22;9773;47.062;15.446;2023-03-01T16:30:12;6.30;99.90
19279;DHT22;9773;47.062;15.446;2023-03-01T16:32:39;6.40;99.90
19279;DHT22;9773;47.062;15.446;2023-03-01T16:35:06;6.40;99.90
19279;DHT22;9773;47.062;15.446;2023-03-01T16:37:35;6.40;99.90
19279;DHT22;9773;47.062;15.446;2023-03-01T16:40:01;6.40;99.90
19279;DHT22;9773;47.062;15.446;2023-03-01T16:42:33;6.30;99.90
19279;DHT22;9773;47.062;15.446;2023-03-01T16:44:59;6.30;99.90
19279;DHT22;9773;47.062;15.446;2023-03-01T16:47:27;6.20;99.90
19279;DHT22;9773;47.062;15.446;2023-03-01T16:49:54;6.20;99.90
19279;DHT22;9773;47.062;15.446;2023-03-01T16:52:21;6.20;99.90
19279;DHT22;9773;47.062;15.446;2023-03-01T16:54:48;6.10;99.90
19279;DHT22;9773;47.062;15.446;2023-03-01T16:57:16;6.20;99.90
19279;DHT22;9773;47.062;15.446;2023-03-01T16:59:42;6.10;99.90
19279;DHT22;9773;47.062;15.446;2023-03-01T17:02:12;6.20;99.90
19279;DHT22;9773;47.062;15.446;2023-03-01T17:04:41;6.10;99.90
19279;DHT22;9773;47.062;15.446;2023-03-01T17:07:07;6.10;99.90
19279;DHT22;9773;47.062;15.446;2023-03-01T17:09:37;6.00;99.90
19279;DHT22;9773;47.062;15.446;2023-03-01T17:12:04;6.00;99.90
19279;DHT22;9773;47.062;15.446;2023-03-01T17:14:30;6.00;99.90
19279;DHT22;9773;47.062;15.446;2023-03-01T17:16:56;6.00;99.90
19279;DHT22;9773;47.062;15.446;2023-03-01T17:19:22;6.00;99.90
19279;DHT22;9773;47.062;15.446;2023-03-01T17:21:48;5.90;99.90
19279;DHT22;9773;47.062;15.446;2023-03-01T17:24:14;5.90;99.90
19279;DHT22;9773;47.062;15.446;2023-03-01T17:26:40;5.80;99.90
19279;DHT22;9773;47.062;15.446;2023-03-01T17:29:06;5.80;99.90
19279;DHT22;9773;47.062;15.446;2023-03-01T17:31:33;5.90;99.90
19279;DHT22;9773;47.062;15.446;2023-03-01T17:33:59;5.90;99.90
19279;DHT22;9773;47.062;15.446;2023-03-01T17:36:24;5.80;99.90
19279;DHT22;9773;47.062;15.446;2023-03-01T17:38:51;5.90;99.90
19279;DHT22;9773;47.062;15.446;2023-03-01T17:41:17;5.80;99.90
19279;DHT22;9773;47.062;15.446;2023-03-01T17:43:44;6.00;99.90
19279;DHT22;9773;47.062;15.446;2023-03-01T17:46:11;5.90;99.90
19279;DHT22;9773;47.062;15.446;2023-03-01T17:48:37;5.80;99.90